createdAt,value
2022-08-04T00:00:58.062Z,20.20
2022-08-04T00:03:34.143Z,20.33
2022-08-04T00:06:23.141Z,20.42
2022-08-04T00:08:57.065Z,20.59
2022-08-04T00:11:31.247Z,20.49
2022-08-04T00:14:12.783Z,20.47
2022-08-04T00:16:42.210Z,20.53
2022-08-04T00:19:45.703Z,20.59
2022-08-04T00:22:14.639Z,20.57
2022-08-04T00:24:42.449Z,20.55
2022-08-04T00:27:10.371Z,20.56
2022-08-04T00:29:40.124Z,20.60
2022-08-04T00:32:09.341Z,20.52
2022-08-04T00:34:37.954Z,20.51
2022-08-04T00:37:07.176Z,20.68
2022-08-04T00:39:35.107Z,20.57
2022-08-04T00:42:08.674Z,20.57
2022-08-04T00:44:58.913Z,20.58
2022-08-04T00:47:50.633Z,20.62
2022-08-04T00:50:39.022Z,20.63
2022-08-04T00:53:20.135Z,20.55
2022-08-04T00:56:04.965Z,20.52
2022-08-04T00:58:53.847Z,20.55
2022-08-04T01:01:36.318Z,20.32
2022-08-04T01:04:15.171Z,20.06
2022-08-04T01:07:18.482Z,19.98
2022-08-04T01:10:04.571Z,19.87
2022-08-04T01:12:49.814Z,19.79
2022-08-04T01:15:30.814Z,19.65
2022-08-04T01:18:38.547Z,19.60
2022-08-04T01:21:31.197Z,19.58
2022-08-04T01:24:04.703Z,19.68
2022-08-04T01:26:57.629Z,19.51
2022-08-04T01:29:29.321Z,19.27
2022-08-04T01:32:34.922Z,19.21
2022-08-04T01:35:21.677Z,19.07
2022-08-04T01:38:01.967Z,19.23
2022-08-04T01:40:47.121Z,19.18
2022-08-04T01:43:15.763Z,19.20
2022-08-04T01:45:46.726Z,19.34
2022-08-04T01:48:16.180Z,19.45
2022-08-04T01:50:45.234Z,19.44
2022-08-04T01:53:13.392Z,19.47
2022-08-04T01:55:55.031Z,19.49
2022-08-04T01:58:25.290Z,19.38
2022-08-04T02:01:05.032Z,19.29
2022-08-04T02:04:18.486Z,19.25
2022-08-04T02:06:49.801Z,19.26
2022-08-04T02:09:24.674Z,19.23
2022-08-04T02:12:16.522Z,19.18
2022-08-04T02:15:36.305Z,19.16
2022-08-04T02:18:16.736Z,19.08
2022-08-04T02:20:47.646Z,19.09
2022-08-04T02:23:20.879Z,19.07
2022-08-04T02:25:56.742Z,19.07
2022-08-04T02:29:18.865Z,19.12
2022-08-04T02:31:50.064Z,19.04
2022-08-04T02:34:36.287Z,18.92
2022-08-04T02:37:05.147Z,18.92
2022-08-04T02:39:48.503Z,18.88
2022-08-04T02:42:17.873Z,19.01
2022-08-04T02:44:53.017Z,19.04
2022-08-04T02:47:22.661Z,19.08
2022-08-04T02:49:54.496Z,19.03
2022-08-04T02:52:25.679Z,18.94
2022-08-04T02:54:58.984Z,18.94
2022-08-04T02:57:30.140Z,18.93
2022-08-04T03:00:11.915Z,18.99
2022-08-04T03:02:56.763Z,18.86
2022-08-04T03:05:32.753Z,18.71
2022-08-04T03:08:47.721Z,18.53
2022-08-04T03:11:46.788Z,18.58
2022-08-04T03:14:48.460Z,18.54
2022-08-04T03:17:58.559Z,18.51
2022-08-04T03:20:31.298Z,18.53
2022-08-04T03:23:16.271Z,18.50
2022-08-04T03:26:18.636Z,18.52
2022-08-04T03:29:35.238Z,18.47
2022-08-04T03:32:28.170Z,18.49
2022-08-04T03:35:15.151Z,18.49
2022-08-04T03:38:24.808Z,18.47
2022-08-04T03:41:12.914Z,18.46
2022-08-04T03:43:58.977Z,18.54
2022-08-04T03:46:42.299Z,18.56
2022-08-04T03:49:21.245Z,18.50
2022-08-04T03:52:28.936Z,18.54
2022-08-04T03:55:35.686Z,18.63
2022-08-04T03:58:39.447Z,18.63
2022-08-04T04:01:30.022Z,18.71
2022-08-04T04:04:42.250Z,18.74
2022-08-04T04:07:39.273Z,18.78
2022-08-04T04:10:15.399Z,18.90
2022-08-04T04:13:00.145Z,19.00
2022-08-04T04:15:38.917Z,19.06
2022-08-04T04:18:56.418Z,19.11
2022-08-04T04:21:36.196Z,19.27
2022-08-04T04:24:33.982Z,19.31
2022-08-04T04:27:18.358Z,19.42
2022-08-04T04:30:03.402Z,19.55
2022-08-04T04:32:36.091Z,19.83
2022-08-04T04:35:05.736Z,19.92
2022-08-04T04:37:51.573Z,20.33
2022-08-04T04:40:27.533Z,20.45
2022-08-04T04:43:09.943Z,20.60
2022-08-04T04:46:05.048Z,20.75
2022-08-04T04:48:32.142Z,20.81
2022-08-04T04:51:10.568Z,20.93
2022-08-04T04:54:03.980Z,21.09
2022-08-04T04:56:37.010Z,21.20
2022-08-04T04:59:09.969Z,21.40
2022-08-04T05:02:01.369Z,21.44
2022-08-04T05:04:53.081Z,21.61
2022-08-04T05:07:53.095Z,21.71
2022-08-04T05:11:01.949Z,21.83
2022-08-04T05:14:35.208Z,21.99
2022-08-04T05:16:56.741Z,22.12
2022-08-04T05:19:35.451Z,22.27
2022-08-04T05:22:32.882Z,22.42
2022-08-04T05:25:23.117Z,22.42
2022-08-04T05:28:25.140Z,22.49
2022-08-04T05:31:00.583Z,22.60
2022-08-04T05:33:33.288Z,22.55
2022-08-04T05:36:23.454Z,22.71
2022-08-04T05:38:59.924Z,22.74
2022-08-04T05:41:32.249Z,22.80
2022-08-04T05:44:15.622Z,22.92
2022-08-04T05:46:46.014Z,23.05
2022-08-04T05:49:22.865Z,23.21
2022-08-04T05:51:50.151Z,23.29
2022-08-04T05:54:19.019Z,23.36
2022-08-04T05:56:46.419Z,23.48
2022-08-04T05:59:15.266Z,23.51
2022-08-04T06:01:55.801Z,23.54
2022-08-04T06:04:35.076Z,23.64
2022-08-04T06:07:02.554Z,23.78
2022-08-04T06:09:30.370Z,24.01
2022-08-04T06:12:04.992Z,24.12
2022-08-04T06:14:43.492Z,24.15
2022-08-04T06:18:33.490Z,24.25
2022-08-04T06:20:20.110Z,24.36
2022-08-04T06:23:01.788Z,24.48
2022-08-04T06:25:45.820Z,24.60
2022-08-04T06:28:37.547Z,24.72
2022-08-04T06:32:27.025Z,24.99
2022-08-04T06:33:56.441Z,26.37
2022-08-04T06:36:25.274Z,28.29
2022-08-04T06:38:58.657Z,29.18
2022-08-04T06:45:42.373Z,30.74
2022-08-04T06:48:13.672Z,30.53
2022-08-04T06:51:25.041Z,31.21
2022-08-04T06:53:29.709Z,31.07
2022-08-04T06:55:59.680Z,30.75
2022-08-04T06:58:28.006Z,30.65
2022-08-04T07:00:58.458Z,30.62
2022-08-04T07:03:25.877Z,30.73
2022-08-04T07:05:53.183Z,30.12
2022-08-04T07:08:21.961Z,30.07
2022-08-04T07:10:50.495Z,29.76
2022-08-04T07:13:18.984Z,30.60
2022-08-04T07:15:52.050Z,31.02
2022-08-04T07:18:19.087Z,30.60
2022-08-04T07:20:47.015Z,30.32
2022-08-04T07:23:17.939Z,29.30
2022-08-04T07:26:11.469Z,28.92
2022-08-04T07:28:43.940Z,28.69
2022-08-04T07:31:31.983Z,28.35
2022-08-04T07:34:20.626Z,28.18
2022-08-04T07:36:53.025Z,28.26
2022-08-04T07:39:28.150Z,28.29
2022-08-04T07:41:58.762Z,28.41
2022-08-04T07:44:26.099Z,28.38
2022-08-04T07:46:53.813Z,28.40
2022-08-04T07:49:54.498Z,28.59
2022-08-04T07:52:10.221Z,28.88
2022-08-04T07:54:39.321Z,28.88
2022-08-04T07:57:06.463Z,29.04
2022-08-04T07:59:33.741Z,29.38
2022-08-04T08:02:02.141Z,29.27
2022-08-04T08:04:30.145Z,29.51
2022-08-04T08:06:57.954Z,29.55
2022-08-04T08:09:24.987Z,29.78
2022-08-04T08:12:38.285Z,29.54
2022-08-04T08:14:42.734Z,29.79
2022-08-04T08:17:09.954Z,30.12
2022-08-04T08:19:36.959Z,30.33
2022-08-04T08:22:04.909Z,30.40
2022-08-04T08:24:35.375Z,30.77
2022-08-04T08:27:06.972Z,30.64
2022-08-04T08:29:35.803Z,30.89
2022-08-04T08:32:08.249Z,30.74
2022-08-04T08:34:38.644Z,30.95
2022-08-04T08:37:12.649Z,31.14
2022-08-04T08:40:10.679Z,31.30
2022-08-04T08:44:04.443Z,31.43
2022-08-04T08:46:49.474Z,31.65
2022-08-04T08:50:01.125Z,31.68
2022-08-04T08:52:57.301Z,31.96
2022-08-04T08:55:53.286Z,32.08
2022-08-04T08:58:35.521Z,32.02
2022-08-04T09:01:17.237Z,32.19
2022-08-04T09:04:04.517Z,32.41
2022-08-04T09:07:07.131Z,32.47
2022-08-04T09:09:36.998Z,32.79
2022-08-04T09:12:10.766Z,32.63
2022-08-04T09:15:04.792Z,32.53
2022-08-04T09:17:48.751Z,32.69
2022-08-04T09:20:47.319Z,32.96
2022-08-04T09:23:26.833Z,32.99
2022-08-04T09:26:26.743Z,32.90
2022-08-04T09:29:11.166Z,32.61
2022-08-04T09:32:06.680Z,32.75
2022-08-04T09:34:37.981Z,32.69
2022-08-04T09:37:13.558Z,32.78
2022-08-04T09:39:55.289Z,32.85
2022-08-04T09:42:48.083Z,32.95
2022-08-04T09:45:43.336Z,32.98
2022-08-04T09:48:50.420Z,32.70
2022-08-04T09:51:58.361Z,32.35
2022-08-04T09:54:38.308Z,32.54
2022-08-04T09:57:51.663Z,32.72
2022-08-04T10:00:40.492Z,32.96
2022-08-04T10:03:16.027Z,33.32
2022-08-04T10:06:08.382Z,33.27
2022-08-04T10:09:09.652Z,33.19
2022-08-04T10:11:56.154Z,33.51
2022-08-04T10:14:42.799Z,33.49
2022-08-04T10:17:35.264Z,33.17
2022-08-04T10:20:45.199Z,33.52
2022-08-04T10:23:22.804Z,33.37
2022-08-04T10:29:05.019Z,33.07
2022-08-04T10:31:42.359Z,33.15
2022-08-04T10:34:22.234Z,32.95
2022-08-04T10:37:59.408Z,32.78
2022-08-04T10:40:42.823Z,33.09
2022-08-04T10:43:22.039Z,33.48
2022-08-04T10:46:02.335Z,33.37
2022-08-04T10:48:45.722Z,33.21
2022-08-04T10:51:57.219Z,33.34
2022-08-04T10:54:26.439Z,33.20
2022-08-04T10:56:59.784Z,33.14
2022-08-04T10:59:46.119Z,33.49
2022-08-04T11:02:25.528Z,34.27
2022-08-04T11:05:11.231Z,34.10
2022-08-04T11:07:41.539Z,33.97
2022-08-04T11:10:10.104Z,34.22
2022-08-04T11:12:39.734Z,34.53
2022-08-04T11:15:09.919Z,34.40
2022-08-04T11:17:44.763Z,34.38
2022-08-04T11:20:35.225Z,34.54
2022-08-04T11:23:12.264Z,34.08
2022-08-04T11:25:56.043Z,33.53
2022-08-04T11:28:58.492Z,33.87
2022-08-04T11:31:34.270Z,33.88
2022-08-04T11:34:13.446Z,33.84
2022-08-04T11:37:13.925Z,33.86
2022-08-04T11:39:50.972Z,34.21
2022-08-04T11:42:30.998Z,34.37
2022-08-04T11:45:18.039Z,34.75
2022-08-04T11:47:54.031Z,34.73
2022-08-04T11:50:41.713Z,33.98
2022-08-04T11:53:17.577Z,34.21
2022-08-04T11:56:07.656Z,34.25
2022-08-04T11:58:38.554Z,33.87
2022-08-04T12:01:13.598Z,33.62
2022-08-04T12:04:04.791Z,33.61
2022-08-04T12:07:15.066Z,34.01
2022-08-04T12:10:01.206Z,34.66
2022-08-04T12:12:48.982Z,34.81
2022-08-04T12:15:30.246Z,34.68
2022-08-04T12:18:23.543Z,34.18
2022-08-04T12:21:06.381Z,33.61
2022-08-04T12:23:41.236Z,33.83
2022-08-04T12:26:25.847Z,34.67
2022-08-04T12:29:10.009Z,34.59
2022-08-04T12:31:55.769Z,34.45
2022-08-04T12:34:33.622Z,33.93
2022-08-04T12:37:07.070Z,33.72
2022-08-04T12:40:21.295Z,33.72
2022-08-04T12:42:40.751Z,33.93
2022-08-04T12:45:24.106Z,33.31
2022-08-04T12:47:54.192Z,33.11
2022-08-04T12:50:23.795Z,32.99
2022-08-04T12:53:03.665Z,33.31
2022-08-04T12:55:37.381Z,33.53
2022-08-04T12:58:16.156Z,33.44
2022-08-04T13:02:09.544Z,33.68
2022-08-04T13:04:02.387Z,33.89
2022-08-04T13:06:33.461Z,33.82
2022-08-04T13:09:17.599Z,34.40
2022-08-04T13:11:57.256Z,34.61
2022-08-04T13:14:29.383Z,34.55
2022-08-04T13:17:01.950Z,34.18
2022-08-04T13:19:41.152Z,34.36
2022-08-04T13:22:09.812Z,34.46
2022-08-04T13:24:56.798Z,34.45
2022-08-04T13:27:28.754Z,34.43
2022-08-04T13:30:14.707Z,34.35
2022-08-04T13:32:56.161Z,34.42
2022-08-04T13:35:54.404Z,34.71
2022-08-04T13:38:14.563Z,34.98
2022-08-04T13:40:43.806Z,35.18
2022-08-04T13:44:15.494Z,35.21
2022-08-04T13:46:16.602Z,35.88
2022-08-04T13:49:23.734Z,35.83
2022-08-04T13:51:58.253Z,35.75
2022-08-04T13:54:47.473Z,35.49
2022-08-04T13:57:30.864Z,35.16
2022-08-04T14:00:03.575Z,35.01
2022-08-04T14:02:38.499Z,34.76
2022-08-04T14:05:18.793Z,34.33
2022-08-04T14:07:52.051Z,34.49
2022-08-04T14:10:20.231Z,34.87
2022-08-04T14:12:51.215Z,35.45
2022-08-04T14:16:01.455Z,35.00
2022-08-04T14:18:32.542Z,34.64
2022-08-04T14:21:02.987Z,34.13
2022-08-04T14:23:48.190Z,32.87
2022-08-04T14:26:15.097Z,32.00
2022-08-04T14:29:25.749Z,32.01
2022-08-04T14:31:31.161Z,31.92
2022-08-04T14:34:04.602Z,31.50
2022-08-04T14:37:13.372Z,31.18
2022-08-04T14:39:40.914Z,30.84
2022-08-04T14:42:08.701Z,31.38
2022-08-04T14:44:55.845Z,31.12
2022-08-04T14:47:52.557Z,31.47
2022-08-04T14:50:20.851Z,31.09
2022-08-04T14:52:47.839Z,30.53
2022-08-04T14:55:24.296Z,30.82
2022-08-04T14:58:33.957Z,31.13
2022-08-04T15:00:40.642Z,31.21
2022-08-04T15:03:09.468Z,31.19
2022-08-04T15:06:00.660Z,30.62
2022-08-04T15:08:31.006Z,30.40
2022-08-04T15:11:02.462Z,30.35
2022-08-04T15:13:33.648Z,30.20
2022-08-04T15:16:08.126Z,29.93
2022-08-04T15:18:38.852Z,29.69
2022-08-04T15:21:07.977Z,29.69
2022-08-04T15:23:39.390Z,29.59
2022-08-04T15:26:12.828Z,29.43
2022-08-04T15:28:46.347Z,29.22
2022-08-04T15:32:06.228Z,28.96
2022-08-04T15:34:03.277Z,29.05
2022-08-04T15:36:39.156Z,28.84
2022-08-04T15:39:31.402Z,28.86
2022-08-04T15:42:21.654Z,28.61
2022-08-04T15:44:59.239Z,28.45
2022-08-04T15:47:27.352Z,28.43
2022-08-04T15:50:05.094Z,28.36
2022-08-04T15:53:10.264Z,28.22
2022-08-04T15:55:44.181Z,28.13
2022-08-04T15:58:17.236Z,28.07
2022-08-04T16:00:50.188Z,28.09
2022-08-04T16:03:58.501Z,27.97
2022-08-04T16:06:22.390Z,27.83
2022-08-04T16:08:57.272Z,27.69
2022-08-04T16:11:31.702Z,27.57
2022-08-04T16:13:59.021Z,27.68
2022-08-04T16:16:31.789Z,27.49
2022-08-04T16:19:13.435Z,27.30
2022-08-04T16:21:52.416Z,27.24
2022-08-04T16:24:21.624Z,26.96
2022-08-04T16:26:56.472Z,26.84
2022-08-04T16:29:23.489Z,26.76
2022-08-04T16:32:05.720Z,26.66
2022-08-04T16:34:49.956Z,26.62
2022-08-04T16:37:21.158Z,26.56
2022-08-04T16:39:49.720Z,26.42
2022-08-04T16:42:30.645Z,26.28
2022-08-04T16:45:07.822Z,26.17
2022-08-04T16:47:50.282Z,25.91
2022-08-04T16:50:23.436Z,25.79
2022-08-04T16:52:53.384Z,25.86
2022-08-04T16:55:28.363Z,25.68
2022-08-04T16:57:59.088Z,25.73
2022-08-04T17:00:35.895Z,25.68
2022-08-04T17:03:06.507Z,25.75
2022-08-04T17:05:38.481Z,25.94
2022-08-04T17:10:58.324Z,25.82
2022-08-04T17:14:02.847Z,25.62
2022-08-04T17:16:25.460Z,25.43
2022-08-04T17:18:56.353Z,25.62
2022-08-04T17:21:30.403Z,25.59
2022-08-04T17:24:15.276Z,25.56
2022-08-04T17:26:53.850Z,25.35
2022-08-04T17:29:44.490Z,25.19
2022-08-04T17:32:18.192Z,25.22
2022-08-04T17:34:51.572Z,25.34
2022-08-04T17:37:52.057Z,25.55
2022-08-04T17:44:01.452Z,25.28
2022-08-04T17:46:28.136Z,24.97
2022-08-04T17:49:02.287Z,25.24
2022-08-04T17:52:05.117Z,25.32
2022-08-04T17:57:25.836Z,25.23
2022-08-04T17:59:58.807Z,25.13
2022-08-04T18:02:32.784Z,25.02
2022-08-04T18:05:06.081Z,24.87
2022-08-04T18:08:40.479Z,24.80
2022-08-04T18:10:55.549Z,24.54
2022-08-04T18:16:28.094Z,24.58
2022-08-04T18:19:13.589Z,24.46
2022-08-04T18:21:46.797Z,24.39
2022-08-04T18:24:35.230Z,24.30
2022-08-04T18:27:24.034Z,24.22
2022-08-04T18:30:33.880Z,24.19
2022-08-04T18:33:04.325Z,24.15
2022-08-04T18:36:32.464Z,24.10
2022-08-04T18:38:22.522Z,24.11
2022-08-04T18:40:54.380Z,24.12
2022-08-04T18:43:28.191Z,23.97
2022-08-04T18:46:09.897Z,23.93
2022-08-04T18:48:54.659Z,23.85
2022-08-04T18:51:34.905Z,23.87
2022-08-04T18:54:15.681Z,23.79
2022-08-04T18:57:21.887Z,23.80
2022-08-04T18:59:31.152Z,23.78
2022-08-04T19:02:13.358Z,23.70
2022-08-04T19:04:49.448Z,23.66
2022-08-04T19:07:28.718Z,23.73
2022-08-04T19:10:00.006Z,23.63
2022-08-04T19:12:28.929Z,23.59
2022-08-04T19:17:57.041Z,23.24
2022-08-04T19:20:57.920Z,23.22
2022-08-04T19:24:23.435Z,23.20
2022-08-04T19:26:41.487Z,23.00
2022-08-04T19:29:19.019Z,22.88
2022-08-04T19:31:48.613Z,22.85
2022-08-04T19:37:08.692Z,22.75
2022-08-04T19:39:37.709Z,22.67
2022-08-04T19:42:09.017Z,22.55
2022-08-04T19:44:44.649Z,22.54
2022-08-04T19:48:17.031Z,22.54
2022-08-04T19:50:17.608Z,22.50
2022-08-04T19:52:52.028Z,22.47
2022-08-04T19:55:22.759Z,22.47
2022-08-04T19:58:07.273Z,22.45
2022-08-04T20:00:37.292Z,22.35
2022-08-04T20:03:11.257Z,22.25
2022-08-04T20:05:53.326Z,22.22
2022-08-04T20:08:26.032Z,22.12
2022-08-04T20:10:58.226Z,21.90
2022-08-04T20:13:37.363Z,21.79
2022-08-04T20:16:30.466Z,21.65
2022-08-04T20:19:03.341Z,21.66
2022-08-04T20:21:55.516Z,21.64
2022-08-04T20:27:24.884Z,21.54
2022-08-04T20:36:05.502Z,21.43
2022-08-04T20:38:35.032Z,21.40
2022-08-04T20:43:56.313Z,21.37
2022-08-04T20:49:18.160Z,21.06
2022-08-04T21:15:24.615Z,20.70
2022-08-04T21:17:58.424Z,20.62
2022-08-04T21:20:42.388Z,20.63
2022-08-04T21:23:12.280Z,20.48
2022-08-04T21:25:49.921Z,20.48
2022-08-04T21:28:38.140Z,20.48
2022-08-04T21:31:22.019Z,20.36
2022-08-04T21:33:59.832Z,20.36
2022-08-04T21:36:33.233Z,20.31
2022-08-04T21:39:02.500Z,20.25
2022-08-04T21:41:33.051Z,20.29
2022-08-04T21:44:01.987Z,20.28
2022-08-04T21:46:32.360Z,20.24
2022-08-04T21:49:14.048Z,20.19
2022-08-04T21:51:57.909Z,20.13
2022-08-04T21:54:31.459Z,20.12
2022-08-04T21:57:03.457Z,19.93
2022-08-04T21:59:33.234Z,19.82
2022-08-04T22:02:27.584Z,19.68
2022-08-04T22:04:57.352Z,19.56
2022-08-04T22:07:50.021Z,19.53
2022-08-04T22:10:31.970Z,19.49
2022-08-04T22:13:06.826Z,19.53
2022-08-04T22:16:03.803Z,19.48
2022-08-04T22:18:29.039Z,19.44
2022-08-04T22:20:58.734Z,19.33
2022-08-04T22:32:16.055Z,19.28
2022-08-04T22:34:53.391Z,19.22
2022-08-04T22:37:28.601Z,19.21
2022-08-04T22:40:06.746Z,19.19
2022-08-04T22:42:37.141Z,19.16
2022-08-04T22:45:10.533Z,19.07
2022-08-04T22:47:41.864Z,19.07
2022-08-04T22:50:27.436Z,18.99
2022-08-04T22:53:01.008Z,18.94
2022-08-04T22:56:07.714Z,18.87
2022-08-04T22:58:28.641Z,18.90
2022-08-04T23:00:58.442Z,18.79
2022-08-04T23:03:36.541Z,18.74
2022-08-04T23:06:11.565Z,18.69
2022-08-04T23:17:43.788Z,18.51
2022-08-04T23:26:08.579Z,18.43
2022-08-04T23:28:43.375Z,18.38
2022-08-04T23:31:17.028Z,18.28
2022-08-04T23:33:50.487Z,18.26
2022-08-04T23:36:48.049Z,18.24
2022-08-04T23:39:19.611Z,18.24
2022-08-04T23:48:14.757Z,18.07
2022-08-04T23:50:15.389Z,18.03
2022-08-04T23:52:45.481Z,17.95
2022-08-04T23:55:21.164Z,17.95
2022-08-04T23:58:06.215Z,17.96
